Time;durP1;ratioP1;P1;durP2;ratioP2;P2;SDS_P1;SDS_P2;PMS_P1;PMS_P2;Temp;Humidity;BMP_temperature;BMP_pressure;BME280_temperature;BME280_humidity;BME280_pressure;Samples;Min_cycle;Max_cycle;Signal;HPM_P1;HPM_P2
2022/09/03 00:00:17;;;;;;;6.03;5.15;;;13.30;99.90;;;;;;5065194;28;20052;-47
2022/09/03 00:03:03;;;;;;;7.07;5.50;;;13.30;99.90;;;;;;5064121;28;20036;-47
2022/09/03 00:05:44;;;;;;;7.60;5.30;;;13.30;99.90;;;;;;5065520;28;20049;-47
2022/09/03 00:08:27;;;;;;;10.10;5.60;;;13.40;99.90;;;;;;5069711;28;20048;-47
2022/09/03 00:11:02;;;;;;;6.47;5.38;;;13.40;99.90;;;;;;5069442;28;20477;-47
2022/09/03 00:13:37;;;;;;;6.32;4.60;;;13.30;99.90;;;;;;5074695;22;20049;-47
2022/09/03 00:16:09;;;;;;;6.85;5.70;;;13.20;99.90;;;;;;5049171;28;20064;-47
2022/09/03 00:18:43;;;;;;;6.95;5.55;;;13.20;99.90;;;;;;5050412;28;20120;-47
2022/09/03 00:21:45;;;;;;;8.15;5.80;;;13.20;99.90;;;;;;5048149;28;20041;-47
2022/09/03 00:24:15;;;;;;;6.63;5.90;;;13.10;99.90;;;;;;5049080;28;20052;-47
2022/09/03 00:26:49;;;;;;;6.65;5.72;;;13.10;99.90;;;;;;5049985;28;20045;-47
2022/09/03 00:29:20;;;;;;;8.05;5.65;;;13.10;99.90;;;;;;5031841;28;20045;-48
2022/09/03 00:31:52;;;;;;;9.27;6.13;;;13.10;99.90;;;;;;5050191;28;20048;-47
2022/09/03 00:34:30;;;;;;;9.55;5.82;;;13.10;99.90;;;;;;5033318;28;20517;-47
2022/09/03 00:36:57;;;;;;;7.15;6.10;;;13.10;99.90;;;;;;5030875;28;20059;-47
2022/09/03 00:39:26;;;;;;;9.65;6.07;;;13.20;99.90;;;;;;5033213;28;20042;-48
2022/09/03 00:42:06;;;;;;;15.27;6.40;;;13.20;99.90;;;;;;5050478;28;20048;-47
2022/09/03 00:44:47;;;;;;;11.50;5.90;;;13.30;99.90;;;;;;5048860;28;20072;-47
2022/09/03 00:47:23;;;;;;;8.13;6.60;;;13.30;99.90;;;;;;5053857;28;20041;-48
2022/09/03 00:50:00;;;;;;;9.15;6.05;;;13.30;99.90;;;;;;5053137;28;20037;-47
2022/09/03 00:52:44;;;;;;;8.27;5.65;;;13.30;99.90;;;;;;5053989;28;20040;-47
2022/09/03 00:55:22;;;;;;;8.95;6.40;;;13.30;99.90;;;;;;5053578;28;20033;-47
2022/09/03 00:58:07;;;;;;;8.30;6.20;;;13.30;99.90;;;;;;5053570;28;20052;-47
2022/09/03 01:00:41;;;;;;;7.53;6.40;;;13.30;99.90;;;;;;5046512;28;20038;-47
2022/09/03 01:03:37;;;;;;;10.90;5.75;;;13.30;99.90;;;;;;5053014;28;20496;-48
2022/09/03 01:06:10;;;;;;;11.25;6.13;;;13.30;99.90;;;;;;5054494;28;20417;-47
2022/09/03 01:09:13;;;;;;;10.80;6.40;;;13.30;99.90;;;;;;5050906;28;20037;-47
2022/09/03 01:11:54;;;;;;;7.93;6.05;;;13.30;99.90;;;;;;5060691;28;20094;-47
2022/09/03 01:15:00;;;;;;;14.25;5.78;;;13.40;99.90;;;;;;5065215;28;20066;-47
2022/09/03 01:17:43;;;;;;;8.27;5.55;;;13.50;99.90;;;;;;5023118;28;20064;-47
2022/09/03 01:20:21;;;;;;;7.32;5.55;;;13.40;99.90;;;;;;5053772;28;20087;-48
2022/09/03 01:23:23;;;;;;;8.80;5.72;;;13.40;99.90;;;;;;5053323;28;20485;-47
2022/09/03 01:26:21;;;;;;;8.32;5.50;;;13.30;99.90;;;;;;5051997;28;20056;-47
2022/09/03 01:29:27;;;;;;;8.38;6.10;;;13.30;99.90;;;;;;5053799;28;20045;-47
2022/09/03 01:32:07;;;;;;;9.48;6.40;;;13.30;99.90;;;;;;5035646;28;20536;-47
2022/09/03 01:34:49;;;;;;;8.93;6.15;;;13.30;99.90;;;;;;5052291;28;20497;-47
2022/09/03 01:37:34;;;;;;;7.68;6.47;;;13.20;99.90;;;;;;5053704;28;20045;-48
2022/09/03 01:40:28;;;;;;;8.98;6.40;;;13.30;99.90;;;;;;5053839;28;20049;-47
2022/09/03 01:43:19;;;;;;;12.57;7.05;;;13.20;99.90;;;;;;5052318;28;20493;-47
2022/09/03 01:46:16;;;;;;;8.25;6.70;;;13.30;99.90;;;;;;5052446;28;20068;-47
2022/09/03 01:49:04;;;;;;;8.07;6.45;;;13.40;99.90;;;;;;5044966;28;20056;-47
2022/09/03 01:51:31;;;;;;;6.95;6.22;;;13.40;99.90;;;;;;5045236;28;20037;-48
2022/09/03 01:54:02;;;;;;;;;;;13.40;99.90;;;;;;5052537;28;20102;-47
2022/09/03 01:56:46;;;;;;;14.98;6.78;;;13.50;99.90;;;;;;5052626;28;19928;-47
2022/09/03 01:59:27;;;;;;;10.02;6.88;;;13.50;99.90;;;;;;5050569;28;20460;-47
2022/09/03 02:02:07;;;;;;;8.85;6.78;;;13.50;99.90;;;;;;5053359;28;20114;-47
2022/09/03 02:04:35;;;;;;;10.32;6.90;;;13.60;99.90;;;;;;5052855;28;20069;-48
2022/09/03 02:07:02;;;;;;;9.60;6.53;;;13.60;99.90;;;;;;5050871;28;20029;-48
2022/09/03 02:09:29;;;;;;;;;;;13.60;99.90;;;;;;5052766;28;20032;-48
2022/09/03 02:12:14;;;;;;;9.00;6.85;;;13.50;99.90;;;;;;5051688;28;19921;-47
2022/09/03 02:14:42;;;;;;;9.23;6.95;;;13.40;99.90;;;;;;5052199;28;20048;-48
2022/09/03 02:17:10;;;;;;;8.73;7.28;;;13.30;99.90;;;;;;5052594;28;20412;-48
2022/09/03 02:19:37;;;;;;;10.85;7.30;;;13.30;99.90;;;;;;5052893;28;20041;-47
2022/09/03 02:22:05;;;;;;;11.48;8.27;;;13.30;99.90;;;;;;5052010;28;20056;-48
2022/09/03 02:24:32;;;;;;;10.93;7.68;;;13.30;99.90;;;;;;5043743;28;20045;-48
2022/09/03 02:26:59;;;;;;;10.70;7.93;;;13.30;99.90;;;;;;5034213;28;20542;-48
2022/09/03 02:29:26;;;;;;;9.75;8.23;;;13.20;99.90;;;;;;5052797;28;20087;-49
2022/09/03 02:31:53;;;;;;;;;;;13.20;99.90;;;;;;5052516;28;20041;-47
2022/09/03 02:34:20;;;;;;;10.98;8.57;;;13.30;99.90;;;;;;5052179;28;20451;-47
2022/09/03 02:36:46;;;;;;;12.75;8.40;;;13.30;99.90;;;;;;5051420;28;20046;-47
2022/09/03 02:39:15;;;;;;;12.73;9.25;;;13.30;99.90;;;;;;5052319;28;20063;-48
2022/09/03 02:41:42;;;;;;;12.02;8.68;;;13.30;99.90;;;;;;5051692;28;20041;-49
2022/09/03 02:44:25;;;;;;;12.35;8.27;;;13.30;99.90;;;;;;5051493;28;20052;-48
2022/09/03 02:47:01;;;;;;;12.82;9.10;;;13.30;99.90;;;;;;5052529;28;20033;-47
2022/09/03 02:49:29;;;;;;;13.60;8.95;;;13.30;99.90;;;;;;5050480;28;20044;-48
2022/09/03 02:52:14;;;;;;;10.77;8.50;;;13.30;99.90;;;;;;5052014;28;20508;-47
2022/09/03 02:54:43;;;;;;;12.90;9.38;;;13.30;99.90;;;;;;5032530;28;20045;-48
2022/09/03 02:57:14;;;;;;;14.63;9.80;;;13.30;99.90;;;;;;5046856;28;20045;-47
2022/09/03 02:59:43;;;;;;;12.43;9.32;;;13.30;99.90;;;;;;5051578;28;20041;-47
2022/09/03 03:02:12;;;;;;;13.82;9.23;;;13.30;99.90;;;;;;5051852;28;20048;-47
2022/09/03 03:04:39;;;;;;;11.68;8.88;;;13.30;99.90;;;;;;5051333;28;20037;-47
2022/09/03 03:07:06;;;;;;;16.48;9.50;;;13.30;99.90;;;;;;5051294;28;20370;-47
2022/09/03 03:09:33;;;;;;;;;;;13.40;99.90;;;;;;5044045;28;20037;-47
2022/09/03 03:12:00;;;;;;;20.50;10.15;;;13.40;99.90;;;;;;5051046;28;19921;-48
2022/09/03 03:14:26;;;;;;;14.27;9.93;;;13.40;99.90;;;;;;5051326;28;20045;-47
2022/09/03 03:16:53;;;;;;;13.13;9.32;;;13.40;99.90;;;;;;5049210;28;20041;-47
2022/09/03 03:19:20;;;;;;;12.35;9.50;;;13.40;99.90;;;;;;5051485;28;20052;-48
2022/09/03 03:21:47;;;;;;;11.18;8.35;;;13.40;99.90;;;;;;5051075;28;20044;-48
2022/09/03 03:24:13;;;;;;;12.30;8.80;;;13.40;99.90;;;;;;5051283;28;20045;-47
2022/09/03 03:26:40;;;;;;;13.38;8.98;;;13.40;99.90;;;;;;5051171;28;20090;-48
2022/09/03 03:29:12;;;;;;;10.55;8.73;;;13.40;99.90;;;;;;5051458;28;20041;-48
2022/09/03 03:31:39;;;;;;;10.55;7.78;;;13.50;99.90;;;;;;5050482;28;20041;-47
2022/09/03 03:34:06;;;;;;;11.85;7.68;;;13.50;99.90;;;;;;5051062;28;20501;-48
2022/09/03 03:36:34;;;;;;;12.57;8.25;;;13.50;99.90;;;;;;5049916;28;20063;-47
2022/09/03 03:39:01;;;;;;;10.57;8.10;;;13.50;99.90;;;;;;5051383;28;20045;-48
2022/09/03 03:41:33;;;;;;;9.73;7.07;;;13.60;99.90;;;;;;5050504;28;20051;-48
2022/09/03 03:44:06;;;;;;;9.43;7.40;;;13.60;99.90;;;;;;5049612;28;20044;-47
2022/09/03 03:46:35;;;;;;;9.45;6.93;;;13.70;99.90;;;;;;5043469;28;20375;-49
2022/09/03 03:49:03;;;;;;;11.20;6.82;;;13.70;99.90;;;;;;5050679;28;20044;-47
2022/09/03 03:51:31;;;;;;;10.43;6.95;;;13.70;99.90;;;;;;5050197;28;20029;-48
2022/09/03 03:53:58;;;;;;;11.27;7.30;;;13.70;99.90;;;;;;5050635;28;20045;-47
2022/09/03 03:56:30;;;;;;;9.55;7.43;;;13.70;99.90;;;;;;5050203;28;20489;-47
2022/09/03 03:58:58;;;;;;;10.27;7.60;;;13.70;99.90;;;;;;5051426;28;20056;-48
2022/09/03 04:01:26;;;;;;;10.70;7.30;;;13.70;99.90;;;;;;5049761;28;20225;-47
2022/09/03 04:03:55;;;;;;;10.65;7.80;;;13.70;99.90;;;;;;5033058;28;20118;-47
2022/09/03 04:06:22;;;;;;;10.38;7.07;;;13.70;99.90;;;;;;5050246;28;20518;-47
2022/09/03 04:08:49;;;;;;;8.38;6.78;;;13.70;99.90;;;;;;5050107;28;20047;-48
2022/09/03 04:11:18;;;;;;;10.27;7.93;;;13.70;99.90;;;;;;5050537;28;20044;-47
2022/09/03 04:13:46;;;;;;;9.45;7.40;;;13.70;99.90;;;;;;5050141;28;20412;-47
2022/09/03 04:16:16;;;;;;;12.32;7.70;;;13.70;99.90;;;;;;5049615;28;20056;-48
2022/09/03 04:18:44;;;;;;;10.55;7.90;;;13.70;99.90;;;;;;5050910;28;20063;-47
2022/09/03 04:21:13;;;;;;;11.80;8.43;;;13.60;99.90;;;;;;5052371;28;20048;-47
2022/09/03 04:23:43;;;;;;;12.38;8.38;;;13.60;99.90;;;;;;5036818;28;20390;-48
2022/09/03 04:26:12;;;;;;;13.27;7.65;;;13.60;99.90;;;;;;5036037;28;20053;-47
2022/09/03 04:28:40;;;;;;;11.85;8.75;;;13.60;99.90;;;;;;5055168;28;20041;-47
2022/09/03 04:31:10;;;;;;;11.23;7.80;;;13.60;99.90;;;;;;5047781;28;20049;-48
2022/09/03 04:33:37;;;;;;;12.52;7.85;;;13.60;99.90;;;;;;5039257;28;20171;-47
2022/09/03 04:36:07;;;;;;;10.70;7.38;;;13.60;99.90;;;;;;5052611;28;20029;-48
2022/09/03 04:38:36;;;;;;;12.43;8.18;;;13.60;99.90;;;;;;5054424;28;20033;-47
2022/09/03 04:41:04;;;;;;;10.98;7.63;;;13.60;99.90;;;;;;5053122;28;20037;-47
2022/09/03 04:43:31;;;;;;;10.00;7.70;;;13.70;99.90;;;;;;5044638;28;20037;-50
2022/09/03 04:46:00;;;;;;;13.95;7.30;;;13.60;99.90;;;;;;5046249;28;20036;-51
2022/09/03 04:48:28;;;;;;;9.43;7.43;;;13.70;99.90;;;;;;5046208;28;20061;-47
2022/09/03 04:51:04;;;;;;;10.65;7.68;;;13.70;99.90;;;;;;5042203;28;20045;-48
2022/09/03 04:53:36;;;;;;;11.45;8.30;;;13.70;99.90;;;;;;5053945;28;20036;-49
2022/09/03 04:56:11;;;;;;;9.38;8.13;;;13.70;99.90;;;;;;5053860;28;20041;-47
2022/09/03 04:58:38;;;;;;;10.95;7.32;;;13.70;99.90;;;;;;5054462;28;20041;-47
2022/09/03 05:01:10;;;;;;;10.32;8.02;;;13.70;99.90;;;;;;5053117;28;20052;-48
2022/09/03 05:03:37;;;;;;;10.77;7.35;;;13.70;99.90;;;;;;5052807;28;20466;-47
2022/09/03 05:06:05;;;;;;;13.27;7.53;;;13.70;99.90;;;;;;5052641;28;20036;-47
2022/09/03 05:08:36;;;;;;;9.23;7.18;;;13.80;99.90;;;;;;5052659;28;20040;-49
2022/09/03 05:11:04;;;;;;;12.02;6.85;;;13.80;99.90;;;;;;5045237;28;20494;-48
2022/09/03 05:13:32;;;;;;;9.40;7.05;;;13.90;99.90;;;;;;5035139;28;20405;-48
2022/09/03 05:16:05;;;;;;;10.90;7.13;;;13.80;99.90;;;;;;5034299;28;20092;-48
2022/09/03 05:18:34;;;;;;;12.73;6.97;;;13.90;99.90;;;;;;5045910;28;20044;-47
2022/09/03 05:21:07;;;;;;;9.63;7.30;;;13.90;99.90;;;;;;5053061;28;20407;-48
2022/09/03 05:23:39;;;;;;;8.02;6.97;;;13.90;99.90;;;;;;5052834;28;20098;-48
2022/09/03 05:26:08;;;;;;;11.55;7.95;;;13.90;99.90;;;;;;5045785;28;20037;-47
2022/09/03 05:28:39;;;;;;;10.23;7.63;;;13.80;99.90;;;;;;5045797;28;20485;-47
2022/09/03 05:31:07;;;;;;;9.40;7.40;;;13.70;99.90;;;;;;5028899;28;20169;-47
2022/09/03 05:33:39;;;;;;;10.98;8.00;;;13.70;99.90;;;;;;5046012;28;20041;-46
2022/09/03 05:36:09;;;;;;;11.68;7.72;;;13.70;99.90;;;;;;5050622;28;20037;-48
2022/09/03 05:38:36;;;;;;;10.18;7.13;;;13.70;99.90;;;;;;5044465;28;20060;-47
2022/09/03 05:41:05;;;;;;;10.55;7.30;;;13.70;99.90;;;;;;5051582;28;20049;-47
2022/09/03 05:43:33;;;;;;;10.48;6.95;;;13.80;99.90;;;;;;5052472;28;20056;-47
2022/09/03 05:46:03;;;;;;;8.70;6.68;;;13.80;99.90;;;;;;5052724;28;20048;-47
2022/09/03 05:48:30;;;;;;;13.02;8.50;;;13.80;99.90;;;;;;5051849;28;20040;-47
2022/09/03 05:51:00;;;;;;;;;;;13.70;99.90;;;;;;5053134;28;20682;-47
2022/09/03 05:53:28;;;;;;;8.60;6.80;;;13.70;99.90;;;;;;5051388;28;19932;-47
2022/09/03 05:55:57;;;;;;;8.52;6.45;;;13.70;99.90;;;;;;5052376;28;20532;-47
2022/09/03 05:58:24;;;;;;;7.43;5.90;;;13.80;99.90;;;;;;5052462;28;20056;-47
2022/09/03 06:00:51;;;;;;;11.70;6.60;;;13.70;99.90;;;;;;5034337;28;20056;-47
2022/09/03 06:03:18;;;;;;;8.48;6.72;;;13.80;99.90;;;;;;5052664;28;20045;-47
2022/09/03 06:05:54;;;;;;;9.57;7.55;;;13.80;99.90;;;;;;5051673;28;20064;-48
2022/09/03 06:08:21;;;;;;;11.00;7.68;;;13.80;99.90;;;;;;5051798;28;20045;-47
2022/09/03 06:10:48;;;;;;;11.80;8.20;;;13.80;99.90;;;;;;5052671;28;20409;-49
2022/09/03 06:13:14;;;;;;;11.57;7.18;;;13.80;99.90;;;;;;5033644;28;20060;-46
2022/09/03 06:15:41;;;;;;;12.50;7.57;;;13.90;99.90;;;;;;5045603;23;20053;-48
2022/09/03 06:21:30;;;;;;;11.95;7.97;;;14.00;99.90;;;;;;5018313;28;20451;-51
2022/09/03 06:23:58;;;;;;;9.23;7.15;;;14.10;99.90;;;;;;5018690;28;20048;-51
2022/09/03 06:26:29;;;;;;;11.38;7.55;;;14.20;99.90;;;;;;5038426;28;20402;-48
2022/09/03 06:28:56;;;;;;;12.57;7.60;;;14.30;99.90;;;;;;5032332;28;20045;-48
2022/09/03 06:31:24;;;;;;;11.20;7.80;;;14.40;99.90;;;;;;5030941;28;20034;-48
2022/09/03 06:33:53;;;;;;;10.40;8.07;;;14.50;99.90;;;;;;5031648;28;20049;-51
2022/09/03 06:36:22;;;;;;;14.57;9.25;;;14.60;99.90;;;;;;5030828;28;20116;-47
2022/09/03 06:38:54;;;;;;;11.80;8.70;;;14.80;99.90;;;;;;5031476;28;20056;-48
2022/09/03 06:41:26;;;;;;;15.18;9.55;;;14.90;99.90;;;;;;5028546;28;20092;-48
2022/09/03 06:43:57;;;;;;;13.40;10.38;;;15.00;99.90;;;;;;5030771;28;20049;-48
2022/09/03 06:46:24;;;;;;;15.32;9.70;;;15.10;99.90;;;;;;5032875;28;20441;-48
2022/09/03 06:48:52;;;;;;;15.30;9.70;;;15.20;99.90;;;;;;5032324;28;20104;-49
2022/09/03 06:51:24;;;;;;;11.35;8.32;;;15.30;99.90;;;;;;5032067;28;20054;-48
2022/09/03 06:53:55;;;;;;;16.88;9.63;;;15.40;99.90;;;;;;5029902;28;20668;-50
2022/09/03 06:56:26;;;;;;;12.45;8.70;;;15.50;99.90;;;;;;5026208;28;20037;-48
2022/09/03 06:58:57;;;;;;;8.82;6.93;;;15.70;99.90;;;;;;5020428;28;20071;-48
2022/09/03 07:01:30;;;;;;;14.38;7.18;;;15.80;99.90;;;;;;5031019;28;20048;-47
2022/09/03 07:04:04;;;;;;;7.40;5.45;;;16.00;99.90;;;;;;5031462;28;20081;-51
2022/09/03 07:06:36;;;;;;;7.70;6.30;;;16.20;99.90;;;;;;5031682;28;20045;-50
2022/09/03 07:09:03;;;;;;;8.00;5.40;;;16.30;99.90;;;;;;5030407;28;20044;-51
2022/09/03 07:11:32;;;;;;;12.82;5.97;;;16.40;99.90;;;;;;5014027;28;20494;-48
2022/09/03 07:13:59;;;;;;;7.20;5.78;;;16.40;99.90;;;;;;5030471;28;20046;-48
2022/09/03 07:16:28;;;;;;;7.47;5.47;;;16.50;99.90;;;;;;5031886;28;20037;-48
2022/09/03 07:18:56;;;;;;;8.30;5.28;;;16.50;99.90;;;;;;5030504;28;20125;-49
2022/09/03 07:21:25;;;;;;;7.43;6.55;;;16.70;99.90;;;;;;5030976;28;20581;-48
2022/09/03 07:23:53;;;;;;;11.77;6.18;;;16.80;99.90;;;;;;5030754;28;20046;-48
2022/09/03 07:26:29;;;;;;;8.93;5.53;;;16.80;99.90;;;;;;5030174;28;20033;-49
2022/09/03 07:28:56;;;;;;;9.48;6.63;;;16.80;99.90;;;;;;5031496;28;20037;-50
2022/09/03 07:31:33;;;;;;;11.15;5.88;;;16.90;99.90;;;;;;5030118;28;20049;-48
2022/09/03 07:34:05;;;;;;;9.75;6.53;;;17.00;99.90;;;;;;5031309;28;20041;-48
2022/09/03 07:36:40;;;;;;;10.73;5.43;;;17.00;99.90;;;;;;5030134;28;20752;-49
2022/09/03 07:39:07;;;;;;;6.75;5.70;;;17.00;99.90;;;;;;5031073;28;20060;-48
2022/09/03 07:41:34;;;;;;;11.35;5.88;;;17.00;99.90;;;;;;5030614;28;20045;-49
2022/09/03 07:44:04;;;;;;;5.90;5.10;;;17.10;99.90;;;;;;5031950;28;20041;-49
2022/09/03 07:46:33;;;;;;;10.57;5.72;;;17.10;99.90;;;;;;5028646;28;20045;-50
2022/09/03 07:49:07;;;;;;;6.70;4.88;;;17.20;99.90;;;;;;5029563;28;20038;-48
2022/09/03 07:51:36;;;;;;;11.32;5.50;;;17.20;99.90;;;;;;5030243;28;20044;-51
2022/09/03 07:54:09;;;;;;;8.32;5.25;;;17.30;99.90;;;;;;5026721;28;20072;-48
2022/09/03 07:56:37;;;;;;;6.72;5.93;;;17.30;99.90;;;;;;5030779;28;20044;-52
2022/09/03 07:59:05;;;;;;;8.55;5.82;;;17.30;99.90;;;;;;5031289;28;20045;-48
2022/09/03 08:01:33;;;;;;;9.95;5.63;;;17.40;99.90;;;;;;5029216;28;20048;-48
2022/09/03 08:04:01;;;;;;;12.32;5.68;;;17.40;99.90;;;;;;5030665;28;20030;-52
2022/09/03 08:06:29;;;;;;;6.93;5.28;;;17.40;99.90;;;;;;5030099;28;20128;-51
2022/09/03 08:09:01;;;;;;;6.78;5.20;;;17.40;99.90;;;;;;5033113;28;20528;-49
2022/09/03 08:11:35;;;;;;;6.00;5.22;;;17.40;99.90;;;;;;5031348;28;20087;-48
2022/09/03 08:14:07;;;;;;;8.93;5.35;;;17.40;99.90;;;;;;5029711;28;20044;-50
2022/09/03 08:16:36;;;;;;;8.27;5.18;;;17.50;99.90;;;;;;5030126;28;20073;-50
2022/09/03 08:19:04;;;;;;;6.57;4.75;;;17.60;99.90;;;;;;5033604;28;20065;-50
2022/09/03 08:21:31;;;;;;;8.07;5.05;;;17.80;99.90;;;;;;5030493;28;20037;-49
2022/09/03 08:24:04;;;;;;;7.57;5.47;;;18.20;99.90;;;;;;5030433;28;20056;-52
2022/09/03 08:26:34;;;;;;;6.28;4.45;;;18.40;99.90;;;;;;5029920;28;20036;-49
2022/09/03 08:29:01;;;;;;;7.05;4.13;;;18.60;99.90;;;;;;5030088;28;20528;-48
2022/09/03 08:31:28;;;;;;;;;;;18.80;99.90;;;;;;5031138;28;20418;-50
2022/09/03 08:33:58;;;;;;;5.50;4.20;;;18.80;99.90;;;;;;5030494;28;20301;-48
2022/09/03 08:36:28;;;;;;;7.32;4.68;;;18.80;99.90;;;;;;5028647;28;20437;-50
2022/09/03 08:39:02;;;;;;;6.07;4.43;;;18.80;99.90;;;;;;5029490;28;20045;-50
2022/09/03 08:41:32;;;;;;;5.45;3.90;;;18.90;99.90;;;;;;5029629;28;20046;-49
2022/09/03 08:44:25;;;;;;;4.18;3.78;;;19.10;99.90;;;;;;5027822;28;20049;-48
2022/09/03 08:47:01;;;;;;;4.95;4.45;;;19.20;99.90;;;;;;5028943;28;20064;-49
2022/09/03 08:49:50;;;;;;;6.38;3.78;;;19.40;99.90;;;;;;5027351;28;20053;-50
2022/09/03 08:52:51;;;;;;;5.05;3.67;;;19.30;99.90;;;;;;5030267;28;20061;-50
2022/09/03 08:55:25;;;;;;;7.03;4.28;;;19.40;99.90;;;;;;5027933;28;20042;-49
2022/09/03 08:58:17;;;;;;;6.32;3.90;;;19.60;99.90;;;;;;5030104;28;20484;-51
2022/09/03 09:01:00;;;;;;;3.80;3.35;;;19.70;99.90;;;;;;5026716;28;20125;-49
2022/09/03 09:03:45;;;;;;;3.47;3.17;;;19.90;99.90;;;;;;5029112;28;20053;-51
2022/09/03 09:06:21;;;;;;;4.88;3.67;;;20.10;99.90;;;;;;5029034;28;20088;-49
2022/09/03 09:09:16;;;;;;;5.25;3.83;;;20.30;99.90;;;;;;5031420;28;20033;-49
2022/09/03 09:12:39;;;;;;;3.58;3.28;;;20.30;99.90;;;;;;5033761;28;20033;-49
2022/09/03 09:15:42;;;;;;;4.03;3.50;;;20.30;99.90;;;;;;4952568;29;20191;-48
2022/09/03 09:18:23;;;;;;;7.30;3.85;;;20.40;99.90;;;;;;4948645;28;20411;-48
2022/09/03 09:20:58;;;;;;;3.60;3.30;;;20.60;99.90;;;;;;5028676;28;20049;-48
2022/09/03 09:23:39;;;;;;;5.93;3.80;;;20.70;99.90;;;;;;5032731;28;20056;-48
2022/09/03 09:26:12;;;;;;;5.28;4.00;;;20.70;99.90;;;;;;5033601;28;20569;-48
2022/09/03 09:28:39;;;;;;;5.05;3.67;;;20.80;99.90;;;;;;5033372;28;20037;-49
2022/09/03 09:31:11;;;;;;;3.95;3.17;;;20.90;99.90;;;;;;5029848;28;20077;-52
2022/09/03 09:33:38;;;;;;;4.18;3.60;;;21.00;99.90;;;;;;5032901;28;20049;-48
2022/09/03 09:36:08;;;;;;;4.82;3.35;;;21.30;99.90;;;;;;5032210;28;20490;-48
2022/09/03 09:38:37;;;;;;;4.82;3.92;;;21.30;99.90;;;;;;5031979;28;20569;-48
2022/09/03 09:41:12;;;;;;;6.00;3.97;;;21.20;99.90;;;;;;5031210;28;20041;-49
2022/09/03 09:43:39;;;;;;;5.07;3.13;;;21.40;99.90;;;;;;5032967;28;20048;-48
2022/09/03 09:46:12;;;;;;;6.20;3.80;;;21.50;99.90;;;;;;5029273;28;20481;-49
2022/09/03 09:48:53;;;;;;;5.85;3.65;;;21.80;99.90;;;;;;5033432;28;20382;-48
2022/09/03 09:51:32;;;;;;;4.68;3.65;;;21.90;99.90;;;;;;5032926;28;20512;-49
2022/09/03 09:54:17;;;;;;;3.67;2.88;;;21.80;99.90;;;;;;5031577;28;20044;-48
2022/09/03 09:56:45;;;;;;;3.83;3.15;;;21.90;99.90;;;;;;5031364;28;20037;-48
2022/09/03 09:59:14;;;;;;;4.40;3.40;;;21.90;99.90;;;;;;5032828;28;20054;-48
2022/09/03 10:01:45;;;;;;;5.72;3.55;;;21.70;99.90;;;;;;5032070;28;20045;-48
2022/09/03 10:04:28;;;;;;;6.45;4.15;;;21.90;99.90;;;;;;5031913;28;20056;-48
2022/09/03 10:07:21;;;;;;;5.25;3.50;;;22.00;99.90;;;;;;5031153;28;20037;-48
2022/09/03 10:10:19;;;;;;;3.65;3.25;;;22.20;99.90;;;;;;5032265;28;20037;-48
2022/09/03 10:13:02;;;;;;;5.95;3.60;;;22.50;99.90;;;;;;5032925;28;20068;-48
2022/09/03 10:15:38;;;;;;;5.55;3.72;;;22.80;99.90;;;;;;5029257;28;20049;-48
2022/09/03 10:18:27;;;;;;;7.90;4.05;;;23.00;99.90;;;;;;5028882;28;20119;-48
2022/09/03 10:21:05;;;;;;;4.28;3.65;;;23.20;99.90;;;;;;5032216;28;20549;-49
2022/09/03 10:23:47;;;;;;;5.10;4.00;;;23.50;99.90;;;;;;5037703;28;20053;-48
2022/09/03 10:26:18;;;;;;;6.70;3.47;;;23.30;99.90;;;;;;5032839;28;20486;-48
2022/09/03 10:28:50;;;;;;;4.30;3.33;;;23.20;99.90;;;;;;5031150;28;20033;-49
2022/09/03 10:31:29;;;;;;;4.35;3.20;;;23.40;99.90;;;;;;5029691;28;20037;-48
2022/09/03 10:34:09;;;;;;;4.65;3.58;;;23.50;99.90;;;;;;5012633;28;20450;-48
2022/09/03 10:36:58;;;;;;;4.55;3.42;;;23.50;99.90;;;;;;5029758;28;20528;-51
2022/09/03 10:39:51;;;;;;;3.65;3.28;;;23.30;99.90;;;;;;5031143;28;20038;-48
2022/09/03 10:42:38;;;;;;;8.38;3.17;;;23.40;99.90;;;;;;5031204;28;20128;-49
2022/09/03 10:45:11;;;;;;;7.97;4.30;;;23.30;99.90;;;;;;5027315;28;20049;-48
2022/09/03 10:48:10;;;;;;;4.85;3.88;;;23.10;99.90;;;;;;5031894;28;20041;-50
2022/09/03 10:50:58;;;;;;;5.15;3.90;;;23.00;99.90;;;;;;5030640;28;20395;-48
2022/09/03 10:53:59;;;;;;;3.83;3.10;;;22.80;99.90;;;;;;5009873;28;20033;-48
2022/09/03 10:56:29;;;;;;;6.82;4.90;;;22.70;99.90;;;;;;5025105;28;20072;-49
2022/09/03 10:59:35;;;;;;;3.63;3.17;;;22.60;99.90;;;;;;5024798;28;20398;-48
2022/09/03 11:02:40;;;;;;;3.67;3.00;;;22.50;99.90;;;;;;5024211;28;20057;-49
2022/09/03 11:05:17;;;;;;;4.00;3.58;;;22.60;99.90;;;;;;5031722;28;20060;-48
2022/09/03 11:07:57;;;;;;;4.97;3.53;;;22.80;99.90;;;;;;5031719;28;20053;-47
2022/09/03 11:10:29;;;;;;;4.57;3.28;;;23.10;99.90;;;;;;5038896;28;20465;-49
2022/09/03 11:13:03;;;;;;;3.25;2.92;;;23.40;99.90;;;;;;5031944;28;20087;-48
2022/09/03 11:16:10;;;;;;;4.10;3.70;;;23.40;99.90;;;;;;5030546;28;20069;-46
2022/09/03 11:18:45;;;;;;;3.42;3.10;;;23.50;99.90;;;;;;5005164;28;20099;-49
2022/09/03 11:21:17;;;;;;;4.95;2.95;;;23.60;99.90;;;;;;5034395;28;20045;-48
2022/09/03 11:23:47;;;;;;;5.45;2.90;;;23.80;99.90;;;;;;5030421;28;20044;-48
2022/09/03 11:26:22;;;;;;;3.67;2.90;;;23.90;99.90;;;;;;5032161;28;20580;-48
2022/09/03 11:29:11;;;;;;;6.13;3.10;;;24.00;99.90;;;;;;5030655;28;20052;-48
2022/09/03 11:31:48;;;;;;;4.78;3.15;;;23.90;99.90;;;;;;5031426;28;20048;-47
2022/09/03 11:34:21;;;;;;;5.32;3.25;;;23.70;99.90;;;;;;5028805;28;20409;-48
2022/09/03 11:37:06;;;;;;;3.85;3.20;;;23.60;99.90;;;;;;5028593;28;20080;-48
2022/09/03 11:39:38;;;;;;;5.82;3.30;;;23.50;99.90;;;;;;5028542;28;20091;-48
2022/09/03 11:42:23;;;;;;;4.78;3.20;;;23.50;99.90;;;;;;5030853;28;20430;-48
2022/09/03 11:44:50;;;;;;;4.82;3.30;;;23.40;99.90;;;;;;5026431;28;20042;-49
2022/09/03 11:47:23;;;;;;;3.80;3.40;;;23.20;99.90;;;;;;5030735;28;20045;-48
2022/09/03 11:49:52;;;;;;;5.78;3.33;;;22.80;99.90;;;;;;5010257;28;20509;-48
2022/09/03 11:52:31;;;;;;;4.90;3.30;;;22.70;99.90;;;;;;5030486;28;20045;-47
2022/09/03 11:54:58;;;;;;;5.40;3.70;;;22.50;99.90;;;;;;5013271;28;20048;-48
2022/09/03 11:57:28;;;;;;;3.72;3.35;;;22.30;99.90;;;;;;5013042;28;20058;-47
2022/09/03 12:00:09;;;;;;;4.10;3.45;;;22.10;99.90;;;;;;5030408;28;20084;-49
2022/09/03 12:02:43;;;;;;;4.55;3.40;;;22.00;99.90;;;;;;5027846;28;20041;-48
2022/09/03 12:05:40;;;;;;;4.03;3.13;;;22.00;99.90;;;;;;5027203;28;20445;-49
2022/09/03 12:08:25;;;;;;;4.47;3.50;;;22.00;99.90;;;;;;5030189;28;20091;-48
2022/09/03 12:11:27;;;;;;;3.45;3.15;;;21.90;99.90;;;;;;5028740;28;20525;-49
2022/09/03 12:17:31;;;;;;;3.13;2.83;;;21.70;99.90;;;;;;4991611;28;20054;-47
2022/09/03 12:19:58;;;;;;;5.47;3.30;;;21.60;99.90;;;;;;4995682;28;20046;-45
2022/09/03 12:22:27;;;;;;;;;;;21.50;99.90;;;;;;4990379;28;20418;-46
2022/09/03 12:24:55;;;;;;;6.65;3.67;;;21.40;99.90;;;;;;4997134;28;19929;-46
2022/09/03 12:27:24;;;;;;;4.22;3.58;;;21.40;99.90;;;;;;5009517;28;20422;-45
2022/09/03 12:29:58;;;;;;;7.20;3.90;;;21.50;99.90;;;;;;5011514;28;20495;-45
2022/09/03 12:32:30;;;;;;;4.10;3.70;;;21.60;99.90;;;;;;5009563;28;20125;-46
2022/09/03 12:35:08;;;;;;;4.28;3.72;;;21.60;99.90;;;;;;5009964;28;20041;-46
2022/09/03 12:37:37;;;;;;;5.57;4.00;;;21.70;99.90;;;;;;5003183;28;20117;-47
2022/09/03 12:40:25;;;;;;;;;;;21.70;99.90;;;;;;5009186;28;20108;-46
2022/09/03 12:42:53;;;;;;;5.40;3.78;;;21.70;99.90;;;;;;5013833;28;19921;-46
2022/09/03 12:45:49;;;;;;;4.63;4.10;;;21.80;99.90;;;;;;5009687;28;20087;-48
2022/09/03 12:48:36;;;;;;;6.25;3.58;;;21.90;99.90;;;;;;5014017;28;20046;-46
2022/09/03 12:51:09;;;;;;;4.85;4.00;;;22.00;99.90;;;;;;5013556;28;20108;-46
2022/09/03 12:53:56;;;;;;;6.50;4.07;;;22.10;99.90;;;;;;5013720;28;20511;-46
2022/09/03 12:56:23;;;;;;;4.80;3.70;;;22.20;99.90;;;;;;5010993;28;20058;-46
2022/09/03 12:59:04;;;;;;;6.15;3.67;;;22.30;99.90;;;;;;5013208;28;20096;-47
2022/09/03 13:01:43;;;;;;;5.07;3.90;;;22.40;99.90;;;;;;5009676;28;20049;-46
2022/09/03 13:04:17;;;;;;;5.05;3.17;;;22.50;99.90;;;;;;5013996;28;20502;-46
2022/09/03 13:06:55;;;;;;;5.10;4.00;;;22.60;99.90;;;;;;5013331;28;20041;-47
2022/09/03 13:09:25;;;;;;;4.80;3.47;;;22.70;99.90;;;;;;5014214;28;20045;-45
2022/09/03 13:11:54;;;;;;;5.93;3.38;;;22.60;99.90;;;;;;5013107;28;20038;-46
2022/09/03 13:14:21;;;;;;;5.22;3.47;;;22.60;99.90;;;;;;5013493;28;20056;-45
2022/09/03 13:16:53;;;;;;;;;;;22.60;99.90;;;;;;5014146;28;20046;-50
2022/09/03 13:19:43;;;;;;;4.55;2.70;;;22.60;99.90;;;;;;5010954;28;20441;-46
2022/09/03 13:22:32;;;;;;;5.28;4.00;;;22.60;99.90;;;;;;5013051;28;20142;-46
2022/09/03 13:25:19;;;;;;;3.70;3.33;;;22.50;99.90;;;;;;5012757;28;20050;-46
2022/09/03 13:28:16;;;;;;;6.28;3.40;;;22.50;99.90;;;;;;5014148;28;20038;-46
2022/09/03 13:31:25;;;;;;;4.70;3.63;;;22.40;99.90;;;;;;5007442;28;20042;-46